Time;durP1;ratioP1;P1;durP2;ratioP2;P2;SDS_P1;SDS_P2;PMS_P1;PMS_P2;Temp;Humidity;BMP_temperature;BMP_pressure;BME280_temperature;BME280_humidity;BME280_pressure;Samples;Min_cycle;Max_cycle;Signal;HPM_P1;HPM_P2
2024/01/12 00:02:10;;;;;;;33.13;13.38;;;;;;;;;;5070550;28;20043;-75
2024/01/12 00:04:37;;;;;;;37.10;14.05;;;;;;;;;;5086789;28;20062;-77
2024/01/12 00:07:03;;;;;;;32.08;13.70;;;;;;;;;;5078395;28;20198;-77
2024/01/12 00:09:29;;;;;;;32.60;13.27;;;;;;;;;;5063544;28;20407;-76
2024/01/12 00:11:55;;;;;;;43.72;15.68;;;;;;;;;;5061811;28;20044;-76
2024/01/12 00:14:21;;;;;;;36.20;15.32;;;;;;;;;;5065147;28;20108;-76
2024/01/12 00:16:48;;;;;;;45.38;14.95;;;;;;;;;;5073579;28;20082;-77
2024/01/12 00:19:17;;;;;;;32.95;13.93;;;;;;;;;;5086049;28;20107;-76
2024/01/12 00:21:44;;;;;;;33.75;13.85;;;;;;;;;;5079098;28;20048;-77
2024/01/12 00:24:10;;;;;;;32.38;13.70;;;;;;;;;;5070750;28;20035;-77
2024/01/12 00:26:36;;;;;;;34.72;13.77;;;;;;;;;;5069508;28;20040;-76
2024/01/12 00:29:02;;;;;;;42.67;15.95;;;;;;;;;;5068155;28;20043;-76
2024/01/12 00:31:28;;;;;;;37.70;15.23;;;;;;;;;;5067950;28;20680;-76
2024/01/12 00:33:54;;;;;;;38.55;14.02;;;;;;;;;;5076776;28;20102;-76
2024/01/12 00:36:20;;;;;;;29.33;12.65;;;;;;;;;;5086028;28;20032;-77
2024/01/12 00:38:46;;;;;;;34.53;12.70;;;;;;;;;;5068434;28;20028;-76
2024/01/12 00:41:12;;;;;;;30.85;13.18;;;;;;;;;;5078998;28;20044;-76
2024/01/12 00:43:38;;;;;;;28.02;12.55;;;;;;;;;;5080378;28;20043;-75
2024/01/12 00:46:05;;;;;;;33.47;13.77;;;;;;;;;;5052853;28;20552;-78
2024/01/12 00:48:31;;;;;;;37.22;13.32;;;;;;;;;;5069604;28;20127;-77
2024/01/12 00:50:57;;;;;;;31.52;13.48;;;;;;;;;;5084795;28;20040;-76
2024/01/12 00:53:23;;;;;;;29.85;12.98;;;;;;;;;;5077972;28;20582;-76
2024/01/12 00:55:49;;;;;;;35.58;13.98;;;;;;;;;;5073417;28;20127;-78
2024/01/12 00:58:15;;;;;;;23.98;12.32;;;;;;;;;;5072419;28;20031;-77
2024/01/12 01:00:41;;;;;;;29.98;12.45;;;;;;;;;;5075388;28;20499;-76
2024/01/12 01:03:07;;;;;;;25.42;12.65;;;;;;;;;;5074429;28;20094;-76
2024/01/12 01:05:34;;;;;;;22.88;11.73;;;;;;;;;;5075922;28;20126;-76
2024/01/12 01:08:00;;;;;;;22.20;14.05;;;;;;;;;;5080645;28;20049;-77
2024/01/12 01:10:26;;;;;;;32.00;12.68;;;;;;;;;;5082224;28;20514;-76
2024/01/12 01:12:53;;;;;;;30.05;12.98;;;;;;;;;;5068125;28;20047;-78
2024/01/12 01:15:19;;;;;;;24.95;12.93;;;;;;;;;;5084863;28;20039;-76
2024/01/12 01:17:45;;;;;;;27.25;11.60;;;;;;;;;;5090717;28;20064;-76
2024/01/12 01:20:12;;;;;;;31.38;12.02;;;;;;;;;;5084893;28;20837;-76
2024/01/12 01:22:38;;;;;;;26.73;11.80;;;;;;;;;;5077452;28;20044;-76
2024/01/12 01:25:04;;;;;;;26.00;11.82;;;;;;;;;;5069824;28;20093;-77
2024/01/12 01:27:30;;;;;;;24.70;11.48;;;;;;;;;;5085159;28;20058;-81
2024/01/12 01:29:56;;;;;;;26.40;10.60;;;;;;;;;;5087594;28;20151;-76
2024/01/12 01:32:22;;;;;;;31.02;11.57;;;;;;;;;;5085100;28;20032;-75
2024/01/12 01:34:48;;;;;;;28.15;11.80;;;;;;;;;;5086913;28;20051;-75
2024/01/12 01:37:14;;;;;;;24.02;11.15;;;;;;;;;;5074912;28;20430;-76
2024/01/12 01:39:40;;;;;;;30.10;10.88;;;;;;;;;;5090119;28;20028;-76
2024/01/12 01:42:06;;;;;;;24.52;11.05;;;;;;;;;;5091770;28;20455;-76
2024/01/12 01:44:32;;;;;;;23.13;10.73;;;;;;;;;;5070612;28;20047;-76
2024/01/12 01:46:59;;;;;;;22.77;11.45;;;;;;;;;;5084956;28;20076;-77
2024/01/12 01:49:26;;;;;;;36.97;12.30;;;;;;;;;;5084880;28;20043;-77
2024/01/12 01:51:52;;;;;;;30.15;11.07;;;;;;;;;;5066012;28;20048;-76
2024/01/12 01:54:19;;;;;;;22.90;11.23;;;;;;;;;;5085315;28;20086;-76
2024/01/12 01:56:46;;;;;;;30.05;12.55;;;;;;;;;;5074561;28;20505;-75
2024/01/12 01:59:12;;;;;;;27.08;11.02;;;;;;;;;;5087552;28;20036;-76
2024/01/12 02:01:39;;;;;;;29.15;11.23;;;;;;;;;;5082314;28;20377;-76
2024/01/12 02:04:05;;;;;;;32.53;11.90;;;;;;;;;;5084141;28;20045;-76
2024/01/12 02:06:32;;;;;;;26.13;10.02;;;;;;;;;;5078431;28;20480;-77
2024/01/12 02:08:59;;;;;;;25.13;10.73;;;;;;;;;;5074760;28;20050;-76
2024/01/12 02:11:25;;;;;;;27.50;11.25;;;;;;;;;;5076958;28;20035;-76
2024/01/12 02:13:51;;;;;;;18.73;10.10;;;;;;;;;;5085764;28;20080;-76
2024/01/12 02:16:17;;;;;;;22.05;10.38;;;;;;;;;;5069708;28;20039;-76
2024/01/12 02:18:43;;;;;;;29.13;10.10;;;;;;;;;;5086287;28;20054;-76
2024/01/12 02:21:09;;;;;;;21.67;9.50;;;;;;;;;;5088446;28;20484;-76
2024/01/12 02:23:36;;;;;;;17.55;10.07;;;;;;;;;;5064560;28;20431;-76
2024/01/12 02:26:02;;;;;;;23.30;9.98;;;;;;;;;;5074572;28;20491;-77
2024/01/12 02:28:28;;;;;;;30.40;11.68;;;;;;;;;;5079740;28;20126;-77
2024/01/12 02:30:54;;;;;;;17.58;8.90;;;;;;;;;;5091188;28;20050;-75
2024/01/12 02:33:20;;;;;;;20.70;9.27;;;;;;;;;;5070278;28;20040;-76
2024/01/12 02:35:46;;;;;;;16.58;9.18;;;;;;;;;;5071360;28;20032;-76
2024/01/12 02:38:12;;;;;;;24.08;9.93;;;;;;;;;;5089169;28;20454;-76
2024/01/12 02:40:38;;;;;;;25.48;9.90;;;;;;;;;;5074225;28;20486;-75
2024/01/12 02:43:04;;;;;;;22.58;9.20;;;;;;;;;;5085218;28;20067;-75
2024/01/12 02:45:30;;;;;;;20.13;9.38;;;;;;;;;;5058335;28;20051;-76
2024/01/12 02:47:56;;;;;;;18.88;9.00;;;;;;;;;;5068675;28;20074;-75
2024/01/12 02:50:22;;;;;;;19.67;9.20;;;;;;;;;;5068244;28;20545;-75
2024/01/12 02:52:50;;;;;;;23.33;8.75;;;;;;;;;;5070254;28;20040;-76
2024/01/12 02:55:16;;;;;;;24.75;9.23;;;;;;;;;;5086521;28;20044;-77
2024/01/12 02:57:42;;;;;;;18.98;8.75;;;;;;;;;;5065774;28;20036;-76
2024/01/12 03:00:08;;;;;;;22.90;9.82;;;;;;;;;;5087089;28;20036;-77
2024/01/12 03:02:34;;;;;;;20.73;9.05;;;;;;;;;;5071125;28;20418;-76
2024/01/12 03:05:00;;;;;;;25.95;9.48;;;;;;;;;;5066074;28;20039;-78
2024/01/12 03:07:26;;;;;;;25.02;9.65;;;;;;;;;;5053637;28;20495;-76
2024/01/12 03:09:52;;;;;;;28.17;11.02;;;;;;;;;;5088778;28;20118;-77
2024/01/12 03:12:18;;;;;;;30.17;10.15;;;;;;;;;;5079489;28;20071;-77
2024/01/12 03:14:44;;;;;;;24.67;10.20;;;;;;;;;;5068744;28;20099;-78
2024/01/12 03:17:10;;;;;;;25.67;10.43;;;;;;;;;;5065415;28;20028;-76
2024/01/12 03:19:36;;;;;;;28.08;11.63;;;;;;;;;;5082037;28;20038;-76
2024/01/12 03:22:02;;;;;;;27.45;10.88;;;;;;;;;;5064700;28;20054;-76
2024/01/12 03:24:28;;;;;;;25.25;10.05;;;;;;;;;;5071673;28;20079;-76
2024/01/12 03:26:55;;;;;;;35.92;11.38;;;;;;;;;;5052300;28;20036;-76
2024/01/12 03:29:21;;;;;;;31.88;10.95;;;;;;;;;;5070548;28;20404;-76
2024/01/12 03:31:47;;;;;;;34.13;10.77;;;;;;;;;;5085282;28;20170;-77
2024/01/12 03:34:13;;;;;;;24.52;9.85;;;;;;;;;;5069140;28;20542;-76
2024/01/12 03:36:39;;;;;;;25.95;11.57;;;;;;;;;;5065891;28;20391;-76
2024/01/12 03:39:05;;;;;;;31.85;11.00;;;;;;;;;;5064885;28;20482;-77
2024/01/12 03:41:31;;;;;;;27.08;11.60;;;;;;;;;;5067638;28;20177;-76
2024/01/12 03:43:57;;;;;;;25.00;11.52;;;;;;;;;;5070935;28;20126;-77
2024/01/12 03:46:24;;;;;;;24.73;10.00;;;;;;;;;;5063264;28;20056;-77
2024/01/12 03:48:50;;;;;;;28.98;11.68;;;;;;;;;;5068989;28;20035;-81
2024/01/12 03:51:16;;;;;;;27.88;11.65;;;;;;;;;;5080149;28;20036;-81
2024/01/12 03:53:42;;;;;;;23.58;10.30;;;;;;;;;;5066463;28;20735;-81
2024/01/12 03:56:08;;;;;;;26.67;10.95;;;;;;;;;;5067549;28;20024;-81
2024/01/12 03:58:37;;;;;;;29.00;10.85;;;;;;;;;;5078415;28;20396;-81
2024/01/12 04:01:06;;;;;;;36.08;10.00;;;;;;;;;;5062242;28;20040;-81
2024/01/12 04:03:32;;;;;;;27.88;11.25;;;;;;;;;;5063217;28;20047;-79
2024/01/12 04:05:59;;;;;;;31.83;11.55;;;;;;;;;;5068807;28;20040;-81
2024/01/12 04:08:25;;;;;;;25.00;11.02;;;;;;;;;;5081969;28;20056;-83
2024/01/12 04:10:51;;;;;;;26.38;12.30;;;;;;;;;;5071862;28;20039;-81
2024/01/12 04:13:17;;;;;;;28.85;10.55;;;;;;;;;;5075210;28;20041;-81
2024/01/12 04:15:44;;;;;;;32.35;11.38;;;;;;;;;;5059851;28;20039;-79
2024/01/12 04:18:10;;;;;;;26.58;10.93;;;;;;;;;;5062263;28;20616;-77
2024/01/12 04:20:36;;;;;;;32.33;11.43;;;;;;;;;;5049446;28;20481;-79
2024/01/12 04:23:02;;;;;;;22.33;10.85;;;;;;;;;;5060191;28;20047;-81
2024/01/12 04:25:28;;;;;;;22.67;9.85;;;;;;;;;;5071303;28;20043;-80
2024/01/12 04:27:54;;;;;;;30.35;11.23;;;;;;;;;;5072185;28;20044;-81
2024/01/12 04:30:20;;;;;;;27.98;10.35;;;;;;;;;;5063134;28;20032;-78
2024/01/12 04:32:46;;;;;;;28.27;10.65;;;;;;;;;;5078839;28;20036;-79
2024/01/12 04:35:12;;;;;;;29.38;10.43;;;;;;;;;;5069630;28;20044;-80
2024/01/12 04:37:39;;;;;;;33.40;10.75;;;;;;;;;;5090922;28;20035;-81
2024/01/12 04:40:05;;;;;;;26.02;10.25;;;;;;;;;;5084285;28;20033;-82
2024/01/12 04:42:31;;;;;;;22.42;10.05;;;;;;;;;;5067934;28;20048;-79
2024/01/12 04:44:57;;;;;;;30.00;12.07;;;;;;;;;;5066358;28;20039;-80
2024/01/12 04:47:23;;;;;;;31.27;10.95;;;;;;;;;;5084907;28;20042;-79
2024/01/12 04:49:49;;;;;;;22.73;10.30;;;;;;;;;;5084888;28;20055;-80
2024/01/12 04:52:16;;;;;;;27.67;10.38;;;;;;;;;;5080205;28;20147;-78
2024/01/12 04:54:42;;;;;;;40.78;11.25;;;;;;;;;;5065487;28;20036;-80
2024/01/12 04:57:08;;;;;;;32.05;10.57;;;;;;;;;;5058813;28;20764;-80
2024/01/12 04:59:34;;;;;;;33.72;11.43;;;;;;;;;;5080950;28;20043;-81
2024/01/12 05:02:00;;;;;;;26.10;10.38;;;;;;;;;;5066620;28;20044;-82
2024/01/12 05:04:26;;;;;;;31.25;11.80;;;;;;;;;;5084947;28;20039;-79
2024/01/12 05:06:52;;;;;;;34.25;10.63;;;;;;;;;;5060808;28;20527;-81
2024/01/12 05:09:18;;;;;;;26.05;11.88;;;;;;;;;;5068199;28;20047;-80
2024/01/12 05:11:44;;;;;;;33.15;10.68;;;;;;;;;;5061668;28;20048;-79
2024/01/12 05:14:11;;;;;;;33.97;10.65;;;;;;;;;;5070556;28;20047;-82
2024/01/12 05:16:37;;;;;;;36.90;11.15;;;;;;;;;;5061060;28;20104;-80
2024/01/12 05:19:03;;;;;;;32.33;10.20;;;;;;;;;;5077255;28;20050;-78
2024/01/12 05:21:29;;;;;;;30.80;11.25;;;;;;;;;;5059721;28;20047;-77
2024/01/12 05:23:55;;;;;;;31.08;10.88;;;;;;;;;;5084136;28;20675;-80
2024/01/12 05:26:21;;;;;;;35.65;9.90;;;;;;;;;;5051208;28;20526;-80
2024/01/12 05:28:47;;;;;;;43.45;12.52;;;;;;;;;;5067890;28;20047;-83
2024/01/12 05:31:13;;;;;;;39.15;10.85;;;;;;;;;;5061139;28;20068;-82
2024/01/12 05:33:40;;;;;;;39.85;11.50;;;;;;;;;;5074420;28;20406;-83
2024/01/12 05:36:06;;;;;;;26.38;10.07;;;;;;;;;;5067247;28;20081;-83
2024/01/12 05:38:32;;;;;;;48.13;11.63;;;;;;;;;;5079859;28;20051;-83
2024/01/12 05:40:58;;;;;;;34.97;11.25;;;;;;;;;;5065285;28;20084;-80
2024/01/12 05:43:24;;;;;;;30.92;10.70;;;;;;;;;;5092108;28;20129;-83
2024/01/12 05:45:50;;;;;;;39.65;10.45;;;;;;;;;;5066793;28;20044;-81
2024/01/12 05:48:17;;;;;;;41.30;12.90;;;;;;;;;;5066053;28;20075;-82
2024/01/12 05:50:43;;;;;;;44.22;11.95;;;;;;;;;;5064975;28;20483;-82
2024/01/12 05:53:09;;;;;;;40.17;10.98;;;;;;;;;;5076852;28;20046;-82
2024/01/12 05:55:35;;;;;;;28.88;10.98;;;;;;;;;;5064692;28;20093;-83
2024/01/12 05:58:03;;;;;;;59.92;13.27;;;;;;;;;;5065062;28;20036;-81
2024/01/12 06:00:29;;;;;;;43.45;11.45;;;;;;;;;;5067872;28;20805;-84
2024/01/12 06:02:55;;;;;;;39.90;10.05;;;;;;;;;;5068299;28;20227;-78
2024/01/12 06:05:21;;;;;;;40.88;10.00;;;;;;;;;;5066005;28;20036;-83
2024/01/12 06:07:47;;;;;;;38.70;10.95;;;;;;;;;;5081050;28;20075;-83
2024/01/12 06:10:14;;;;;;;44.05;10.43;;;;;;;;;;5076184;28;20097;-83
2024/01/12 06:12:40;;;;;;;54.78;10.77;;;;;;;;;;5062925;28;20397;-78
2024/01/12 06:15:06;;;;;;;37.10;10.27;;;;;;;;;;5067563;28;20044;-83
2024/01/12 06:17:32;;;;;;;41.30;9.52;;;;;;;;;;5083405;28;20549;-82
2024/01/12 06:19:58;;;;;;;50.67;9.65;;;;;;;;;;5066707;28;20479;-83
2024/01/12 06:22:24;;;;;;;32.17;9.15;;;;;;;;;;5062436;28;20118;-83
2024/01/12 06:24:50;;;;;;;31.95;7.93;;;;;;;;;;5066700;28;20109;-83
2024/01/12 06:27:17;;;;;;;37.08;8.73;;;;;;;;;;5049229;28;20500;-83
2024/01/12 06:29:43;;;;;;;38.50;9.48;;;;;;;;;;5064119;28;20048;-81
2024/01/12 06:32:09;;;;;;;50.22;9.63;;;;;;;;;;5081662;28;20070;-84
2024/01/12 06:34:35;;;;;;;34.33;8.00;;;;;;;;;;5084660;28;20120;-83
2024/01/12 06:37:01;;;;;;;39.38;8.40;;;;;;;;;;5067369;28;20036;-76
2024/01/12 06:39:27;;;;;;;39.92;7.40;;;;;;;;;;5060149;28;20036;-80
2024/01/12 06:41:53;;;;;;;42.30;8.52;;;;;;;;;;5069345;28;20048;-80
2024/01/12 06:44:20;;;;;;;30.70;6.93;;;;;;;;;;5046141;28;20044;-81
2024/01/12 06:46:46;;;;;;;28.95;7.40;;;;;;;;;;5061327;28;20036;-82
2024/01/12 06:49:12;;;;;;;37.08;7.78;;;;;;;;;;5064101;28;20051;-82
2024/01/12 06:51:38;;;;;;;38.88;8.65;;;;;;;;;;5079008;28;20089;-82
2024/01/12 06:54:04;;;;;;;55.13;7.10;;;;;;;;;;5072282;28;20039;-80
2024/01/12 06:56:32;;;;;;;38.70;6.32;;;;;;;;;;5048701;28;20046;-82
2024/01/12 06:58:58;;;;;;;38.53;7.45;;;;;;;;;;5081204;28;20039;-83
2024/01/12 07:01:24;;;;;;;43.33;7.70;;;;;;;;;;5066417;28;20032;-84
2024/01/12 07:03:53;;;;;;;38.13;6.22;;;;;;;;;;5079020;28;20609;-84
2024/01/12 07:06:19;;;;;;;32.03;4.63;;;;;;;;;;5078814;28;20048;-83
2024/01/12 07:08:46;;;;;;;32.75;6.05;;;;;;;;;;5060615;28;20106;-81
2024/01/12 07:11:12;;;;;;;29.50;6.05;;;;;;;;;;5071097;28;20044;-82
2024/01/12 07:13:38;;;;;;;36.95;4.90;;;;;;;;;;5050582;28;20035;-82
2024/01/12 07:16:04;;;;;;;51.17;8.98;;;;;;;;;;5062436;28;20079;-82
2024/01/12 07:18:30;;;;;;;20.67;3.95;;;;;;;;;;5088850;28;20040;-81
2024/01/12 07:20:57;;;;;;;31.08;6.53;;;;;;;;;;5063280;28;20115;-83
2024/01/12 07:23:26;;;;;;;26.50;3.88;;;;;;;;;;5076812;28;20078;-83
2024/01/12 07:25:52;;;;;;;30.40;5.40;;;;;;;;;;5072042;28;20051;-80
2024/01/12 07:28:18;;;;;;;28.88;4.82;;;;;;;;;;5076669;28;20082;-83
2024/01/12 07:30:45;;;;;;;31.02;3.50;;;;;;;;;;5049067;28;20032;-83
2024/01/12 07:33:11;;;;;;;32.55;4.35;;;;;;;;;;5077012;28;20115;-81
2024/01/12 07:35:37;;;;;;;20.63;2.85;;;;;;;;;;5060616;28;20042;-82
2024/01/12 07:38:04;;;;;;;27.33;3.90;;;;;;;;;;5075136;28;20051;-81
2024/01/12 07:40:30;;;;;;;23.65;3.53;;;;;;;;;;5072742;28;20036;-81
2024/01/12 07:42:56;;;;;;;21.70;3.47;;;;;;;;;;5076051;28;20070;-80
2024/01/12 07:45:25;;;;;;;29.52;4.18;;;;;;;;;;5076711;28;20067;-81
2024/01/12 07:47:51;;;;;;;24.65;3.65;;;;;;;;;;5058000;28;20041;-83
2024/01/12 07:50:17;;;;;;;32.45;4.00;;;;;;;;;;5074027;28;20041;-83
2024/01/12 07:52:43;;;;;;;32.60;4.80;;;;;;;;;;5064250;28;20079;-83
2024/01/12 07:55:09;;;;;;;19.92;3.45;;;;;;;;;;5043128;28;20100;-84
2024/01/12 07:57:37;;;;;;;24.13;3.83;;;;;;;;;;5060488;28;20036;-91
2024/01/12 08:00:03;;;;;;;23.38;2.83;;;;;;;;;;5073324;28;20459;-91
2024/01/12 08:02:29;;;;;;;22.45;3.00;;;;;;;;;;5061708;28;20599;-89
2024/01/12 08:04:55;;;;;;;20.00;3.42;;;;;;;;;;5089798;28;20031;-90
2024/01/12 08:07:21;;;;;;;22.52;2.90;;;;;;;;;;5068726;28;20067;-87
2024/01/12 08:09:47;;;;;;;25.80;3.90;;;;;;;;;;5070704;28;20082;-90
2024/01/12 08:12:15;;;;;;;24.10;5.68;;;;;;;;;;5089848;28;20633;-88
2024/01/12 08:14:41;;;;;;;25.27;4.47;;;;;;;;;;5080794;28;20123;-89
2024/01/12 08:17:07;;;;;;;22.45;4.35;;;;;;;;;;5059386;28;20044;-89
2024/01/12 08:19:33;;;;;;;22.25;3.70;;;;;;;;;;5073917;28;20116;-90
2024/01/12 08:21:59;;;;;;;15.80;3.15;;;;;;;;;;5070152;28;20536;-89
2024/01/12 08:24:25;;;;;;;28.05;3.10;;;;;;;;;;5079080;28;20043;-90
2024/01/12 08:26:51;;;;;;;28.73;3.13;;;;;;;;;;5088433;28;20039;-89
2024/01/12 08:29:17;;;;;;;19.55;3.10;;;;;;;;;;5089337;28;20036;-88
2024/01/12 08:31:43;;;;;;;18.23;3.22;;;;;;;;;;5068829;28;20044;-83
2024/01/12 08:34:09;;;;;;;25.30;3.70;;;;;;;;;;5070089;28;20036;-84
2024/01/12 08:36:35;;;;;;;21.52;3.50;;;;;;;;;;5064826;28;20433;-83
2024/01/12 08:39:01;;;;;;;26.98;3.38;;;;;;;;;;5073976;28;20033;-83
2024/01/12 08:41:28;;;;;;;22.65;3.20;;;;;;;;;;5067750;28;20040;-83
2024/01/12 08:43:54;;;;;;;27.25;3.50;;;;;;;;;;5084357;28;20036;-83
2024/01/12 08:46:20;;;;;;;22.65;3.17;;;;;;;;;;5072302;28;20151;-82
2024/01/12 08:48:48;;;;;;;20.05;3.03;;;;;;;;;;5076629;28;20544;-83
2024/01/12 08:51:15;;;;;;;22.65;3.22;;;;;;;;;;5083022;28;20055;-82
2024/01/12 08:53:41;;;;;;;27.20;4.43;;;;;;;;;;5071790;28;20471;-85
2024/01/12 08:56:07;;;;;;;21.17;3.03;;;;;;;;;;5062023;28;20043;-84
2024/01/12 08:58:34;;;;;;;24.73;2.45;;;;;;;;;;5059032;28;20094;-82
2024/01/12 09:01:00;;;;;;;27.30;3.72;;;;;;;;;;5093288;28;20037;-80
2024/01/12 09:03:26;;;;;;;19.02;2.92;;;;;;;;;;5081083;28;20753;-83
2024/01/12 09:05:52;;;;;;;23.98;3.13;;;;;;;;;;5070606;28;20040;-82
2024/01/12 09:08:18;;;;;;;25.13;3.17;;;;;;;;;;5075643;28;20113;-82
2024/01/12 09:10:44;;;;;;;22.88;3.65;;;;;;;;;;5074979;28;20047;-85
2024/01/12 09:13:10;;;;;;;20.67;2.53;;;;;;;;;;5093729;28;20044;-84
2024/01/12 09:15:36;;;;;;;23.08;2.55;;;;;;;;;;5088350;28;20046;-83
2024/01/12 09:18:03;;;;;;;19.63;3.50;;;;;;;;;;5075526;28;20084;-81
2024/01/12 09:20:32;;;;;;;18.95;2.85;;;;;;;;;;5089142;28;20122;-83
2024/01/12 09:22:58;;;;;;;17.13;2.92;;;;;;;;;;5085268;28;20044;-83
2024/01/12 09:25:24;;;;;;;17.67;2.67;;;;;;;;;;5063999;28;20572;-83
2024/01/12 09:27:52;;;;;;;23.55;4.60;;;;;;;;;;5087896;28;20122;-82
2024/01/12 09:30:19;;;;;;;31.30;2.63;;;;;;;;;;5090766;28;20043;-84
2024/01/12 09:32:45;;;;;;;14.73;2.67;;;;;;;;;;5085814;28;20503;-82
2024/01/12 09:35:11;;;;;;;31.70;4.45;;;;;;;;;;5051660;28;20032;-83
2024/01/12 09:37:37;;;;;;;23.73;2.80;;;;;;;;;;5069976;28;20043;-81
2024/01/12 09:40:03;;;;;;;23.08;3.30;;;;;;;;;;5089162;28;20044;-84
2024/01/12 09:42:32;;;;;;;16.17;2.83;;;;;;;;;;5069078;28;20039;-82
2024/01/12 09:44:59;;;;;;;17.67;2.50;;;;;;;;;;5082146;28;20449;-83
2024/01/12 09:47:26;;;;;;;14.15;2.53;;;;;;;;;;5067912;28;20047;-83
2024/01/12 09:49:53;;;;;;;29.45;3.42;;;;;;;;;;5085543;28;20040;-82
2024/01/12 09:52:19;;;;;;;22.77;3.45;;;;;;;;;;5063902;28;20050;-82
2024/01/12 09:54:45;;;;;;;25.83;3.75;;;;;;;;;;5069961;28;20452;-81
2024/01/12 09:57:12;;;;;;;28.52;3.08;;;;;;;;;;5066710;28;20036;-83
2024/01/12 09:59:38;;;;;;;24.45;3.35;;;;;;;;;;5082326;28;20869;-82
2024/01/12 10:02:15;;;;;;;18.13;3.05;;;;;;;;;;5082208;28;20069;-75
2024/01/12 10:04:41;;;;;;;27.45;3.03;;;;;;;;;;5070229;28;20812;-76
2024/01/12 10:07:07;;;;;;;22.92;2.65;;;;;;;;;;5048644;28;20131;-74
2024/01/12 10:09:33;;;;;;;33.67;3.78;;;;;;;;;;5070419;28;20036;-74
2024/01/12 10:11:59;;;;;;;27.20;3.35;;;;;;;;;;5080650;28;20051;-74
2024/01/12 10:14:25;;;;;;;26.08;3.45;;;;;;;;;;5069434;28;20396;-75
2024/01/12 10:16:55;;;;;;;23.92;3.97;;;;;;;;;;5079559;28;20040;-74
2024/01/12 10:19:21;;;;;;;18.10;3.03;;;;;;;;;;5070866;28;20036;-76
2024/01/12 10:21:48;;;;;;;26.23;3.70;;;;;;;;;;5080753;28;20036;-75
2024/01/12 10:24:17;;;;;;;23.08;2.78;;;;;;;;;;5084725;28;20097;-75
2024/01/12 10:26:43;;;;;;;24.42;3.95;;;;;;;;;;5079588;28;20055;-75
2024/01/12 10:29:11;;;;;;;23.90;4.18;;;;;;;;;;5084579;28;20044;-76
2024/01/12 10:31:44;;;;;;;30.10;3.13;;;;;;;;;;5081954;28;20040;-76
2024/01/12 10:34:14;;;;;;;26.45;2.72;;;;;;;;;;5078271;28;20046;-75
2024/01/12 10:36:40;;;;;;;16.02;3.53;;;;;;;;;;5081010;28;20058;-75
2024/01/12 10:39:10;;;;;;;30.85;3.53;;;;;;;;;;5085370;28;20361;-74
2024/01/12 10:41:37;;;;;;;21.10;2.97;;;;;;;;;;5087540;28;20036;-74
2024/01/12 10:44:06;;;;;;;21.35;3.38;;;;;;;;;;5076871;28;20032;-75
2024/01/12 10:46:39;;;;;;;28.35;4.90;;;;;;;;;;5067513;28;20040;-75
2024/01/12 10:49:05;;;;;;;23.60;4.53;;;;;;;;;;5078976;28;20127;-74
2024/01/12 10:51:33;;;;;;;26.92;3.55;;;;;;;;;;5063196;28;20037;-74
2024/01/12 10:54:01;;;;;;;22.83;2.97;;;;;;;;;;5095026;28;20088;-74
2024/01/12 10:56:28;;;;;;;25.60;3.25;;;;;;;;;;5083755;28;20067;-74
2024/01/12 10:58:55;;;;;;;31.73;4.97;;;;;;;;;;5097356;28;20456;-74
2024/01/12 11:01:21;;;;;;;30.20;3.83;;;;;;;;;;5086712;28;20420;-74
2024/01/12 11:03:48;;;;;;;27.38;3.95;;;;;;;;;;5075841;28;20051;-75
2024/01/12 11:06:16;;;;;;;29.00;4.03;;;;;;;;;;5073251;28;20505;-75
2024/01/12 11:08:42;;;;;;;27.63;3.95;;;;;;;;;;5072629;28;20049;-75
2024/01/12 11:11:09;;;;;;;23.38;3.67;;;;;;;;;;5084687;28;20075;-75
2024/01/12 11:13:36;;;;;;;31.92;3.85;;;;;;;;;;5080420;28;20036;-75
2024/01/12 11:16:03;;;;;;;25.15;3.28;;;;;;;;;;5065454;28;20043;-75
2024/01/12 11:18:29;;;;;;;35.55;3.65;;;;;;;;;;5053581;28;20193;-75
2024/01/12 11:21:02;;;;;;;27.42;3.80;;;;;;;;;;5064104;28;20036;-76
2024/01/12 11:23:28;;;;;;;32.08;4.07;;;;;;;;;;5080400;28;20121;-76
2024/01/12 11:25:55;;;;;;;25.00;3.97;;;;;;;;;;5084314;28;20114;-76
2024/01/12 11:28:21;;;;;;;30.88;4.05;;;;;;;;;;5073118;28;20044;-75
2024/01/12 11:30:50;;;;;;;31.25;4.50;;;;;;;;;;5063554;28;20076;-77
2024/01/12 11:33:17;;;;;;;31.25;6.45;;;;;;;;;;5065400;28;20052;-76
2024/01/12 11:35:51;;;;;;;31.20;4.55;;;;;;;;;;5060865;28;20049;-75
2024/01/12 11:38:19;;;;;;;26.10;3.92;;;;;;;;;;5079973;28;20042;-76
2024/01/12 11:40:48;;;;;;;35.65;3.80;;;;;;;;;;5092459;27;20039;-76
2024/01/12 11:43:17;;;;;;;35.22;3.78;;;;;;;;;;5061936;28;20052;-76
2024/01/12 11:45:44;;;;;;;22.77;3.05;;;;;;;;;;5047928;28;20619;-75
2024/01/12 11:48:14;;;;;;;27.60;3.83;;;;;;;;;;5081689;28;20131;-76
2024/01/12 11:50:42;;;;;;;37.88;4.85;;;;;;;;;;5085187;28;20119;-76
2024/01/12 11:53:11;;;;;;;23.77;3.17;;;;;;;;;;5069775;28;20487;-76
2024/01/12 11:55:39;;;;;;;28.60;5.53;;;;;;;;;;5071217;28;20071;-76
2024/01/12 11:58:05;;;;;;;30.77;3.60;;;;;;;;;;5066675;28;20032;-75
2024/01/12 12:00:33;;;;;;;27.65;4.20;;;;;;;;;;5081623;28;20067;-76
2024/01/12 12:02:59;;;;;;;29.30;3.92;;;;;;;;;;5071048;28;20075;-75
2024/01/12 12:05:25;;;;;;;19.90;3.10;;;;;;;;;;5065466;28;20506;-76
2024/01/12 12:07:51;;;;;;;30.88;3.63;;;;;;;;;;5086566;28;20056;-76
2024/01/12 12:10:17;;;;;;;27.02;5.32;;;;;;;;;;5060190;28;20050;-76
2024/01/12 12:12:43;;;;;;;37.92;5.15;;;;;;;;;;5082427;28;20032;-76
2024/01/12 12:15:15;;;;;;;26.83;4.78;;;;;;;;;;5085852;28;20498;-75
2024/01/12 12:17:43;;;;;;;24.77;3.45;;;;;;;;;;5050868;28;20036;-75
2024/01/12 12:20:13;;;;;;;33.17;4.45;;;;;;;;;;5087317;28;20114;-77
2024/01/12 12:22:40;;;;;;;33.63;5.03;;;;;;;;;;5099358;28;20468;-76
2024/01/12 12:25:10;;;;;;;33.25;4.85;;;;;;;;;;5080723;28;20036;-76
2024/01/12 12:27:37;;;;;;;31.80;4.15;;;;;;;;;;5063302;28;20079;-75
2024/01/12 12:30:05;;;;;;;41.97;5.30;;;;;;;;;;5073056;28;20072;-76
2024/01/12 12:32:31;;;;;;;31.60;4.85;;;;;;;;;;5067414;28;20083;-75
2024/01/12 12:34:57;;;;;;;28.45;3.60;;;;;;;;;;5065503;28;20510;-76
2024/01/12 12:37:23;;;;;;;33.85;3.90;;;;;;;;;;5087507;28;20484;-76
2024/01/12 12:39:49;;;;;;;32.17;4.13;;;;;;;;;;5051914;28;20040;-76
2024/01/12 12:42:16;;;;;;;27.35;3.03;;;;;;;;;;5077791;28;20498;-76
2024/01/12 12:44:42;;;;;;;22.73;4.50;;;;;;;;;;5055286;28;20040;-76
2024/01/12 12:47:08;;;;;;;26.48;3.03;;;;;;;;;;5067175;28;20041;-76
2024/01/12 12:49:39;;;;;;;26.20;3.58;;;;;;;;;;5073979;28;20051;-77
2024/01/12 12:52:05;;;;;;;27.02;3.40;;;;;;;;;;5081562;28;20052;-76
2024/01/12 12:54:31;;;;;;;22.10;3.17;;;;;;;;;;5067655;28;20036;-76
2024/01/12 12:56:59;;;;;;;31.20;3.83;;;;;;;;;;5056216;28;20032;-76
2024/01/12 12:59:26;;;;;;;28.42;3.80;;;;;;;;;;5082835;28;20068;-75
2024/01/12 13:01:52;;;;;;;25.15;3.78;;;;;;;;;;5085393;28;20068;-76
2024/01/12 13:04:18;;;;;;;27.42;3.40;;;;;;;;;;5064481;28;20102;-76
2024/01/12 13:06:44;;;;;;;19.35;2.50;;;;;;;;;;5075141;28;20052;-76
2024/01/12 13:09:12;;;;;;;22.85;2.78;;;;;;;;;;5071190;28;20072;-79
2024/01/12 13:11:39;;;;;;;20.25;2.85;;;;;;;;;;5080922;28;20056;-80
2024/01/12 13:14:05;;;;;;;36.30;4.07;;;;;;;;;;5074014;28;20032;-79
2024/01/12 13:16:31;;;;;;;21.52;3.58;;;;;;;;;;5070492;28;20466;-80
2024/01/12 13:18:57;;;;;;;20.73;2.92;;;;;;;;;;5081028;28;20138;-80
2024/01/12 13:21:23;;;;;;;31.30;3.83;;;;;;;;;;5052737;28;20047;-81
2024/01/12 13:23:50;;;;;;;17.50;3.15;;;;;;;;;;5080731;28;20043;-81
2024/01/12 13:26:17;;;;;;;20.45;2.65;;;;;;;;;;5079979;28;20085;-81
2024/01/12 13:28:43;;;;;;;27.00;2.80;;;;;;;;;;5078687;28;20074;-81
2024/01/12 13:31:09;;;;;;;22.63;3.35;;;;;;;;;;5067694;28;20129;-78
2024/01/12 13:33:36;;;;;;;24.13;3.15;;;;;;;;;;5089102;28;20067;-80
2024/01/12 13:36:02;;;;;;;24.80;3.10;;;;;;;;;;5056862;28;20096;-80
2024/01/12 13:38:28;;;;;;;28.15;3.03;;;;;;;;;;5091385;28;20106;-79
2024/01/12 13:40:56;;;;;;;29.38;3.58;;;;;;;;;;5056379;28;20049;-80
2024/01/12 13:43:22;;;;;;;29.35;2.80;;;;;;;;;;5069012;28;20043;-80
2024/01/12 13:45:49;;;;;;;31.70;3.35;;;;;;;;;;5079420;28;20063;-81
2024/01/12 13:48:15;;;;;;;18.55;2.75;;;;;;;;;;5088462;28;20118;-78
2024/01/12 13:50:41;;;;;;;27.60;2.85;;;;;;;;;;5066520;28;20029;-82
2024/01/12 13:53:07;;;;;;;15.13;2.10;;;;;;;;;;5087391;28;20043;-80
2024/01/12 13:55:33;;;;;;;16.35;2.33;;;;;;;;;;5072139;28;20520;-81
2024/01/12 13:57:59;;;;;;;25.45;2.78;;;;;;;;;;5066826;28;20033;-81
2024/01/12 14:00:27;;;;;;;21.13;3.90;;;;;;;;;;5087355;28;20032;-80
2024/01/12 14:02:53;;;;;;;19.88;2.72;;;;;;;;;;5069179;28;20044;-80
2024/01/12 14:05:19;;;;;;;15.25;2.55;;;;;;;;;;5076965;28;20502;-80
2024/01/12 14:07:46;;;;;;;19.42;2.58;;;;;;;;;;5070808;28;20108;-79
2024/01/12 14:10:12;;;;;;;10.43;2.28;;;;;;;;;;5071505;28;20078;-81
2024/01/12 14:12:38;;;;;;;14.93;2.72;;;;;;;;;;5078453;28;20036;-80
2024/01/12 14:15:04;;;;;;;23.80;2.55;;;;;;;;;;5084170;28;20040;-77
2024/01/12 14:17:30;;;;;;;19.48;2.97;;;;;;;;;;5064606;28;20118;-79
2024/01/12 14:19:57;;;;;;;21.00;2.25;;;;;;;;;;5067238;28;20036;-76
2024/01/12 14:22:24;;;;;;;21.85;2.13;;;;;;;;;;5068869;28;20040;-76